Time;durP1;ratioP1;P1;durP2;ratioP2;P2;SDS_P1;SDS_P2;PMS_P1;PMS_P2;Temp;Humidity;BMP_temperature;BMP_pressure;BME280_temperature;BME280_humidity;BME280_pressure;Samples;Min_cycle;Max_cycle;Signal;HPM_P1;HPM_P2
2022/01/16 00:01:42;;;;;;;68.53;22.60;;;4.60;99.90;;;;;;4952207;29;20039;-67
2022/01/16 00:04:08;;;;;;;67.10;20.95;;;4.60;99.90;;;;;;4953455;28;20047;-67
2022/01/16 00:06:35;;;;;;;69.43;21.80;;;4.70;99.90;;;;;;4952878;28;20086;-67
2022/01/16 00:09:01;;;;;;;78.88;23.13;;;4.70;99.90;;;;;;4953926;28;20114;-66
2022/01/16 00:11:27;;;;;;;66.53;22.40;;;4.70;99.90;;;;;;4952996;29;20102;-66
2022/01/16 00:13:53;;;;;;;65.78;21.38;;;4.70;99.90;;;;;;4955569;29;20091;-66
2022/01/16 00:16:19;;;;;;;57.63;20.50;;;4.70;99.90;;;;;;4952478;28;20375;-66
2022/01/16 00:18:54;;;;;;;59.60;20.00;;;4.70;99.90;;;;;;4953419;28;20030;-66
2022/01/16 00:21:24;;;;;;;39.95;16.27;;;4.70;99.90;;;;;;4950817;29;20119;-66
2022/01/16 00:23:51;;;;;;;51.00;19.07;;;4.70;99.90;;;;;;4940037;29;20031;-66
2022/01/16 00:26:18;;;;;;;53.97;18.80;;;4.70;99.90;;;;;;4945192;28;20276;-66
2022/01/16 00:28:45;;;;;;;48.40;18.33;;;4.70;99.90;;;;;;4953161;29;20077;-66
2022/01/16 00:31:11;;;;;;;50.03;18.45;;;4.60;99.90;;;;;;4951174;28;20041;-66
2022/01/16 00:33:39;;;;;;;58.95;19.95;;;4.60;99.90;;;;;;4950768;28;20035;-66
2022/01/16 00:36:07;;;;;;;59.67;19.52;;;4.60;99.90;;;;;;4950305;28;20030;-67
2022/01/16 00:38:34;;;;;;;62.03;21.13;;;4.60;99.90;;;;;;4937530;29;20023;-66
2022/01/16 00:40:59;;;;;;;56.80;20.88;;;4.70;99.90;;;;;;4951306;29;20027;-67
2022/01/16 00:43:25;;;;;;;79.80;22.67;;;4.70;99.90;;;;;;4951337;28;20081;-66
2022/01/16 00:45:51;;;;;;;77.97;21.77;;;4.70;99.90;;;;;;4951150;28;20110;-66
2022/01/16 00:48:17;;;;;;;70.43;22.15;;;4.80;99.90;;;;;;4951152;28;20414;-66
2022/01/16 00:50:43;;;;;;;81.57;22.67;;;4.80;99.90;;;;;;4952227;29;20445;-66
2022/01/16 00:53:08;;;;;;;68.95;21.45;;;4.80;99.90;;;;;;4953413;28;20039;-66
2022/01/16 00:55:36;;;;;;;62.58;20.42;;;4.80;99.90;;;;;;4949690;29;20139;-66
2022/01/16 00:58:02;;;;;;;69.78;19.73;;;4.80;99.90;;;;;;4952579;28;20059;-66
2022/01/16 01:00:31;;;;;;;64.93;20.25;;;4.80;99.90;;;;;;4950787;29;20054;-67
2022/01/16 01:02:57;;;;;;;68.57;21.23;;;4.80;99.90;;;;;;4951845;29;20067;-66
2022/01/16 01:05:22;;;;;;;66.18;20.25;;;4.80;99.90;;;;;;4950471;29;20142;-66
2022/01/16 01:07:48;;;;;;;61.00;19.67;;;4.80;99.90;;;;;;4953251;29;20039;-66
2022/01/16 01:10:14;;;;;;;64.95;20.95;;;4.80;99.90;;;;;;4950832;29;20082;-66
2022/01/16 01:12:54;;;;;;;67.65;20.15;;;4.80;99.90;;;;;;4950290;28;20062;-66
2022/01/16 01:15:29;;;;;;;53.80;17.83;;;4.80;99.90;;;;;;4949578;28;20783;-67
2022/01/16 01:17:56;;;;;;;49.42;16.58;;;4.80;99.90;;;;;;4952455;28;20110;-66
2022/01/16 01:20:23;;;;;;;37.10;14.15;;;4.80;99.90;;;;;;4952182;28;20027;-66
2022/01/16 01:22:51;;;;;;;43.38;14.98;;;4.80;99.90;;;;;;4952782;29;20031;-66
2022/01/16 01:25:18;;;;;;;43.58;14.85;;;4.80;99.90;;;;;;4948359;28;20035;-67
2022/01/16 01:27:45;;;;;;;33.90;12.40;;;4.80;99.90;;;;;;4946687;28;20031;-66
2022/01/16 01:30:13;;;;;;;31.42;12.00;;;4.80;99.90;;;;;;4950516;28;20034;-66
2022/01/16 01:32:40;;;;;;;31.50;12.15;;;4.70;99.90;;;;;;4950462;28;20423;-66
2022/01/16 01:35:09;;;;;;;37.58;12.93;;;4.70;99.90;;;;;;4939920;28;20036;-66
2022/01/16 01:37:35;;;;;;;33.72;12.57;;;4.70;99.90;;;;;;4952765;29;20074;-66
2022/01/16 01:40:04;;;;;;;42.97;13.35;;;4.70;99.90;;;;;;4951580;29;20027;-66
2022/01/16 01:42:42;;;;;;;43.42;14.27;;;4.70;99.90;;;;;;4949999;28;20082;-66
2022/01/16 01:53:21;;;;;;;73.38;19.50;;;4.70;99.90;;;;;;4950098;29;20041;-66
2022/01/16 01:55:47;;;;;;;84.13;19.20;;;4.80;99.90;;;;;;4953777;28;20057;-66
2022/01/16 01:58:16;;;;;;;95.72;20.58;;;4.70;99.90;;;;;;4951620;28;20031;-66
2022/01/16 02:00:42;;;;;;;69.60;20.45;;;4.70;99.90;;;;;;4949046;29;20436;-66
2022/01/16 02:05:49;;;;;;;75.13;20.48;;;4.80;99.90;;;;;;4936743;29;20562;-66
2022/01/16 02:08:16;;;;;;;62.90;19.08;;;4.80;99.90;;;;;;4951121;28;20118;-66
2022/01/16 02:10:42;;;;;;;65.20;18.63;;;4.80;99.90;;;;;;4952949;29;20027;-66
2022/01/16 02:13:17;;;;;;;64.38;17.58;;;4.80;99.90;;;;;;4947331;28;20036;-66
2022/01/16 02:31:41;;;;;;;42.20;13.93;;;4.80;99.90;;;;;;4950966;29;20110;-66
2022/01/16 02:36:53;;;;;;;48.45;15.00;;;4.80;99.90;;;;;;4950598;29;20038;-66
2022/01/16 02:39:25;;;;;;;37.95;12.45;;;4.80;99.90;;;;;;4949100;28;20513;-66
2022/01/16 02:41:56;;;;;;;41.90;13.20;;;4.80;99.90;;;;;;4949331;28;20106;-66
2022/01/16 02:44:31;;;;;;;43.45;13.63;;;4.80;99.90;;;;;;4950631;28;20026;-66
2022/01/16 02:46:58;;;;;;;37.35;13.13;;;4.70;99.90;;;;;;4952700;29;20039;-66
2022/01/16 02:49:30;;;;;;;45.63;13.55;;;4.80;99.90;;;;;;4948307;28;20086;-66
2022/01/16 02:52:03;;;;;;;51.97;14.18;;;4.80;99.90;;;;;;4947054;28;20094;-66
2022/01/16 02:54:35;;;;;;;38.88;14.63;;;4.80;99.90;;;;;;4950397;28;20114;-65
2022/01/16 02:57:01;;;;;;;48.33;14.48;;;4.80;99.90;;;;;;4949238;28;20494;-66
2022/01/16 02:59:27;;;;;;;53.50;15.02;;;4.80;99.90;;;;;;4950606;28;20027;-66
2022/01/16 03:01:53;;;;;;;49.03;15.00;;;4.80;99.90;;;;;;4944976;28;20083;-66
2022/01/16 03:04:19;;;;;;;55.17;15.40;;;4.80;99.90;;;;;;4948292;29;20164;-66
2022/01/16 03:06:45;;;;;;;47.28;14.90;;;4.80;99.90;;;;;;4950083;28;20455;-66
2022/01/16 03:09:12;;;;;;;49.63;12.98;;;4.80;99.90;;;;;;4950069;28;20047;-66
2022/01/16 03:11:46;;;;;;;40.38;13.75;;;4.80;99.90;;;;;;4949805;28;20035;-66
2022/01/16 03:14:14;;;;;;;43.45;12.98;;;4.80;99.90;;;;;;4951236;28;20039;-67
2022/01/16 03:16:43;;;;;;;48.50;13.30;;;4.80;99.90;;;;;;4949827;28;20035;-66
2022/01/16 03:21:54;;;;;;;42.67;12.68;;;4.80;99.90;;;;;;4947918;29;20070;-66
2022/01/16 03:24:41;;;;;;;46.03;12.65;;;4.80;99.90;;;;;;4950519;28;20039;-66
2022/01/16 03:27:11;;;;;;;50.13;12.73;;;4.80;99.90;;;;;;4948569;28;20039;-66
2022/01/16 03:29:38;;;;;;;41.13;11.70;;;4.80;99.90;;;;;;4949191;28;20049;-66
2022/01/16 03:32:07;;;;;;;50.38;11.85;;;4.80;99.90;;;;;;4943705;28;20414;-67
2022/01/16 03:34:34;;;;;;;43.78;12.07;;;4.80;99.90;;;;;;4949235;29;20034;-66
2022/01/16 03:37:00;;;;;;;42.72;11.90;;;4.80;99.90;;;;;;4947651;28;20462;-66
2022/01/16 03:39:26;;;;;;;52.38;12.20;;;4.80;99.90;;;;;;4948489;28;20138;-66
2022/01/16 03:41:52;;;;;;;63.28;13.45;;;4.80;99.90;;;;;;4950414;28;20031;-66
2022/01/16 03:44:19;;;;;;;71.63;13.75;;;4.80;99.90;;;;;;4950384;28;20051;-66
2022/01/16 03:46:45;;;;;;;51.78;13.25;;;4.80;99.90;;;;;;4950385;29;20031;-66
2022/01/16 03:49:16;;;;;;;44.85;11.82;;;4.70;99.90;;;;;;4945598;29;20047;-66
2022/01/16 03:51:44;;;;;;;48.88;12.25;;;4.80;99.90;;;;;;4948106;28;20106;-66
2022/01/16 03:54:13;;;;;;;43.47;12.45;;;4.70;99.90;;;;;;4948907;28;20034;-66
2022/01/16 03:56:39;;;;;;;46.33;12.45;;;4.80;99.90;;;;;;4948812;28;20067;-66
2022/01/16 03:59:06;;;;;;;45.00;11.88;;;4.80;99.90;;;;;;4951454;28;20078;-66
2022/01/16 04:01:32;;;;;;;43.03;12.68;;;4.80;99.90;;;;;;4945863;29;20491;-66
2022/01/16 04:03:58;;;;;;;43.90;12.63;;;4.70;99.90;;;;;;4948554;28;20055;-66
2022/01/16 04:06:25;;;;;;;46.45;11.48;;;4.70;99.90;;;;;;4950314;28;20074;-66
2022/01/16 04:08:55;;;;;;;38.85;11.43;;;4.80;99.90;;;;;;4952925;29;20050;-66
2022/01/16 04:11:25;;;;;;;45.55;11.48;;;4.70;99.90;;;;;;4953809;28;20659;-66
2022/01/16 04:13:54;;;;;;;34.07;11.47;;;4.70;99.90;;;;;;4954180;29;20112;-66
2022/01/16 04:16:22;;;;;;;34.35;10.82;;;4.80;99.90;;;;;;4952815;28;20350;-66
2022/01/16 04:18:50;;;;;;;36.40;10.35;;;4.80;99.90;;;;;;4953029;28;20020;-66
2022/01/16 04:21:19;;;;;;;37.85;10.00;;;4.80;99.90;;;;;;4951219;28;20038;-66
2022/01/16 04:23:45;;;;;;;35.60;10.40;;;4.80;99.90;;;;;;4952800;28;20119;-66
2022/01/16 04:26:10;;;;;;;31.98;9.68;;;4.80;99.90;;;;;;4953772;28;20465;-66
2022/01/16 04:28:36;;;;;;;25.25;8.90;;;4.80;99.90;;;;;;4952780;29;20042;-66
2022/01/16 04:31:02;;;;;;;29.30;9.15;;;4.80;99.90;;;;;;4951131;29;20038;-66
2022/01/16 04:33:29;;;;;;;27.02;7.68;;;4.80;99.90;;;;;;4948198;29;20038;-66
2022/01/16 04:35:55;;;;;;;28.65;8.43;;;4.70;99.90;;;;;;4952786;29;20039;-66
2022/01/16 04:38:21;;;;;;;28.83;8.77;;;4.70;99.90;;;;;;4953453;29;20498;-66
2022/01/16 04:43:47;;;;;;;24.23;8.40;;;4.70;99.90;;;;;;4954101;29;20106;-66
2022/01/16 04:46:25;;;;;;;22.88;8.07;;;4.70;99.90;;;;;;4950849;29;20102;-66
2022/01/16 04:48:52;;;;;;;27.42;8.05;;;4.70;99.90;;;;;;4952274;29;20469;-67
2022/01/16 04:51:19;;;;;;;23.40;8.25;;;4.70;99.90;;;;;;4951470;28;20035;-66
2022/01/16 04:53:45;;;;;;;20.77;7.68;;;4.70;99.90;;;;;;4939387;29;20031;-66
2022/01/16 04:56:12;;;;;;;24.38;7.95;;;4.70;99.90;;;;;;4953365;29;20027;-66
2022/01/16 04:58:39;;;;;;;28.80;8.55;;;4.70;99.90;;;;;;4952419;29;20039;-66
2022/01/16 05:01:05;;;;;;;21.23;6.50;;;4.70;99.90;;;;;;4951571;29;20031;-66
2022/01/16 05:03:32;;;;;;;25.33;8.15;;;4.80;99.90;;;;;;4943585;29;20039;-66
2022/01/16 05:05:59;;;;;;;30.98;8.27;;;4.70;99.90;;;;;;4951164;29;20031;-66
2022/01/16 05:08:25;;;;;;;26.67;8.27;;;4.80;99.90;;;;;;4953041;29;20533;-66
2022/01/16 05:10:54;;;;;;;24.38;8.00;;;4.70;99.90;;;;;;4944427;28;20479;-66
2022/01/16 05:18:40;;;;;;;30.80;8.73;;;4.80;99.90;;;;;;4951319;28;20378;-67
2022/01/16 05:21:06;;;;;;;34.50;9.38;;;4.70;99.90;;;;;;4951025;29;20050;-67
2022/01/16 05:23:32;;;;;;;31.58;9.40;;;4.70;99.90;;;;;;4940381;29;20031;-67
2022/01/16 05:25:59;;;;;;;33.90;9.05;;;4.70;99.90;;;;;;4953938;29;20027;-66
2022/01/16 05:28:25;;;;;;;27.67;8.77;;;4.70;99.90;;;;;;4951293;29;20057;-66
2022/01/16 05:30:51;;;;;;;29.63;8.75;;;4.70;99.90;;;;;;4946551;29;20075;-66
2022/01/16 05:33:17;;;;;;;36.63;10.27;;;4.80;99.90;;;;;;4951566;29;20042;-66
2022/01/16 05:35:42;;;;;;;36.60;9.63;;;4.80;99.90;;;;;;4951056;29;20475;-66
2022/01/16 05:38:09;;;;;;;28.88;9.40;;;4.80;99.90;;;;;;4952721;29;20039;-66
2022/01/16 05:40:35;;;;;;;26.67;8.82;;;4.80;99.90;;;;;;4944271;29;20063;-66
2022/01/16 05:43:01;;;;;;;32.95;8.70;;;4.80;99.90;;;;;;4947087;29;20074;-66
2022/01/16 05:45:27;;;;;;;25.63;7.97;;;4.80;99.90;;;;;;4951819;29;20086;-66
2022/01/16 05:47:54;;;;;;;31.08;9.93;;;4.80;99.90;;;;;;4938582;29;20023;-66
2022/01/16 05:50:20;;;;;;;33.08;8.90;;;4.80;99.90;;;;;;4948929;29;20023;-66
2022/01/16 05:52:46;;;;;;;46.63;8.63;;;4.70;99.90;;;;;;4952886;29;20027;-66
2022/01/16 05:55:12;;;;;;;37.17;9.70;;;4.70;99.90;;;;;;4950751;29;20039;-66
2022/01/16 05:57:38;;;;;;;59.00;10.55;;;4.70;99.90;;;;;;4951254;29;20023;-66
2022/01/16 06:00:05;;;;;;;34.88;9.35;;;4.70;99.90;;;;;;4947060;28;20437;-66
2022/01/16 06:02:31;;;;;;;38.42;8.82;;;4.70;99.90;;;;;;4944490;28;20020;-66
2022/01/16 06:04:57;;;;;;;36.50;8.77;;;4.70;99.90;;;;;;4949110;28;20517;-66
2022/01/16 06:07:23;;;;;;;27.83;9.07;;;4.70;99.90;;;;;;4951224;28;20031;-66
2022/01/16 06:09:49;;;;;;;40.58;10.00;;;4.70;99.90;;;;;;4949361;28;20490;-66
2022/01/16 06:12:14;;;;;;;37.13;10.77;;;4.70;99.90;;;;;;4940596;29;20437;-66
2022/01/16 06:14:40;;;;;;;38.28;9.85;;;4.70;99.90;;;;;;4950223;28;20035;-66
2022/01/16 06:17:06;;;;;;;35.55;10.25;;;4.70;99.90;;;;;;4952994;29;20015;-66
2022/01/16 06:19:32;;;;;;;30.70;10.15;;;4.70;99.90;;;;;;4950368;29;20023;-66
2022/01/16 06:21:58;;;;;;;29.00;8.35;;;4.80;99.90;;;;;;4946625;28;20027;-66
2022/01/16 06:24:24;;;;;;;26.15;7.95;;;4.80;99.90;;;;;;4950210;29;20441;-67
2022/01/16 06:26:50;;;;;;;29.30;8.52;;;4.70;99.90;;;;;;4951399;28;20505;-66
2022/01/16 06:29:17;;;;;;;26.10;8.15;;;4.70;99.90;;;;;;4950597;28;20031;-67
2022/01/16 06:31:43;;;;;;;21.08;7.65;;;4.70;99.90;;;;;;4947796;28;20034;-67
2022/01/16 06:34:09;;;;;;;28.38;9.25;;;4.70;99.90;;;;;;4950715;29;20035;-66
2022/01/16 06:36:36;;;;;;;22.15;6.75;;;4.70;99.90;;;;;;4948675;29;20023;-66
2022/01/16 06:39:07;;;;;;;37.28;8.77;;;4.70;99.90;;;;;;4950900;28;20090;-66
2022/01/16 06:41:34;;;;;;;45.03;8.95;;;4.70;99.90;;;;;;4934392;29;20054;-66
2022/01/16 06:44:00;;;;;;;40.30;9.10;;;4.70;99.90;;;;;;4947760;28;20135;-67
2022/01/16 06:46:26;;;;;;;40.00;9.18;;;4.70;99.90;;;;;;4949266;29;20027;-66
2022/01/16 06:48:52;;;;;;;37.35;9.50;;;4.70;99.90;;;;;;4949803;29;20046;-67
2022/01/16 06:51:20;;;;;;;38.03;8.98;;;4.70;99.90;;;;;;4940933;28;20054;-66
2022/01/16 06:53:49;;;;;;;31.80;9.13;;;4.70;99.90;;;;;;4949657;28;20039;-66
2022/01/16 06:56:16;;;;;;;30.83;10.20;;;4.70;99.90;;;;;;4951409;29;20027;-66
2022/01/16 06:58:43;;;;;;;41.63;8.90;;;4.70;99.90;;;;;;4950385;28;20930;-66
2022/01/16 07:01:09;;;;;;;63.00;10.45;;;4.70;99.90;;;;;;4946858;29;20491;-66
2022/01/16 07:03:36;;;;;;;43.42;10.48;;;4.70;99.90;;;;;;4949570;28;20055;-67
2022/01/16 07:06:03;;;;;;;44.55;10.80;;;4.70;99.90;;;;;;4945082;28;20094;-68
2022/01/16 07:08:29;;;;;;;33.13;9.15;;;4.70;99.90;;;;;;4951090;28;20051;-66
2022/01/16 07:10:59;;;;;;;32.90;9.05;;;4.70;99.90;;;;;;4951393;29;20042;-67
2022/01/16 07:13:25;;;;;;;33.30;9.13;;;4.70;99.90;;;;;;4951111;29;20495;-67
2022/01/16 07:15:52;;;;;;;26.83;8.70;;;4.70;99.90;;;;;;4946172;29;20061;-67
2022/01/16 07:18:18;;;;;;;41.10;9.77;;;4.70;99.90;;;;;;4950583;28;20031;-66
2022/01/16 07:20:44;;;;;;;32.20;9.48;;;4.70;99.90;;;;;;4952331;29;20107;-66
2022/01/16 07:23:11;;;;;;;36.25;8.40;;;4.70;99.90;;;;;;4952831;29;20046;-67
2022/01/16 07:25:37;;;;;;;30.17;8.80;;;4.70;99.90;;;;;;4952624;29;20139;-66
2022/01/16 07:28:03;;;;;;;34.15;8.75;;;4.70;99.90;;;;;;4951248;29;20109;-68
2022/01/16 07:30:29;;;;;;;66.00;10.40;;;4.70;99.90;;;;;;4949239;29;20024;-66
2022/01/16 07:32:55;;;;;;;46.13;10.30;;;4.70;99.90;;;;;;4950989;28;20027;-66
2022/01/16 07:35:21;;;;;;;61.10;10.23;;;4.70;99.90;;;;;;4950409;28;20078;-67
2022/01/16 07:37:47;;;;;;;23.23;7.13;;;4.70;99.90;;;;;;4953431;28;20219;-67
2022/01/16 07:40:13;;;;;;;43.65;13.63;;;4.70;99.90;;;;;;4948250;29;20485;-67
2022/01/16 07:42:39;;;;;;;51.03;12.60;;;4.70;99.90;;;;;;4945534;29;20568;-67
2022/01/16 07:45:05;;;;;;;55.50;12.27;;;4.70;99.90;;;;;;4952688;28;20113;-67
2022/01/16 07:47:31;;;;;;;58.83;11.88;;;4.70;99.90;;;;;;4953177;28;20046;-67
2022/01/16 07:49:58;;;;;;;45.25;11.50;;;4.70;99.90;;;;;;4955243;29;20043;-67
2022/01/16 07:52:23;;;;;;;51.70;11.65;;;4.70;99.90;;;;;;4954317;28;20039;-67
2022/01/16 07:54:49;;;;;;;52.30;11.82;;;4.70;99.90;;;;;;4952538;28;20023;-67
2022/01/16 07:57:15;;;;;;;43.40;11.68;;;4.70;99.90;;;;;;4952512;28;20059;-67
2022/01/16 07:59:41;;;;;;;56.85;11.82;;;4.70;99.90;;;;;;4952626;28;20479;-67
2022/01/16 08:02:07;;;;;;;49.33;12.05;;;4.70;99.90;;;;;;4954574;28;20049;-67
2022/01/16 08:04:33;;;;;;;42.13;10.30;;;4.80;99.90;;;;;;4953383;29;20043;-67
2022/01/16 08:06:58;;;;;;;41.72;10.60;;;4.80;99.90;;;;;;4952410;29;20098;-67
2022/01/16 08:09:24;;;;;;;67.03;20.77;;;4.80;99.90;;;;;;4953235;28;20035;-67
2022/01/16 08:11:50;;;;;;;199.02;55.83;;;4.90;99.90;;;;;;4946703;29;20485;-67
2022/01/16 08:14:16;;;;;;;103.05;26.85;;;4.80;99.90;;;;;;4955295;28;20040;-67
2022/01/16 08:16:43;;;;;;;51.95;10.38;;;4.90;99.90;;;;;;4956556;29;20027;-67
2022/01/16 08:19:09;;;;;;;61.42;11.98;;;4.90;99.90;;;;;;4957334;28;20050;-67
2022/01/16 08:21:35;;;;;;;35.42;10.48;;;4.90;99.90;;;;;;4947795;29;20110;-67
2022/01/16 08:24:03;;;;;;;47.88;11.02;;;5.00;99.90;;;;;;4954483;29;20035;-67
2022/01/16 08:26:31;;;;;;;56.97;11.23;;;5.00;99.90;;;;;;4954818;28;20078;-67
2022/01/16 08:28:57;;;;;;;58.92;15.55;;;4.90;99.90;;;;;;4955384;28;20467;-67
2022/01/16 08:31:23;;;;;;;56.65;12.35;;;5.00;99.90;;;;;;4952435;28;20035;-67
2022/01/16 08:33:49;;;;;;;50.50;12.85;;;5.00;99.90;;;;;;4953848;29;20372;-67
2022/01/16 08:36:16;;;;;;;54.05;12.82;;;5.00;99.90;;;;;;4953781;28;20103;-67
2022/01/16 08:38:41;;;;;;;64.85;13.93;;;5.00;99.90;;;;;;4952093;28;20082;-67
2022/01/16 08:41:07;;;;;;;38.45;9.88;;;5.00;99.90;;;;;;4952579;28;20483;-69
2022/01/16 08:43:33;;;;;;;54.20;12.52;;;5.00;99.90;;;;;;4953644;29;20102;-68
2022/01/16 08:45:59;;;;;;;53.42;13.35;;;5.00;99.90;;;;;;4952187;28;20081;-68
2022/01/16 08:48:25;;;;;;;50.78;13.27;;;5.00;99.90;;;;;;4951968;28;20094;-68
2022/01/16 08:50:51;;;;;;;50.53;12.57;;;5.00;99.90;;;;;;4951919;28;20064;-68
2022/01/16 08:53:16;;;;;;;58.35;12.32;;;5.00;99.90;;;;;;4950961;28;20031;-68
2022/01/16 08:55:42;;;;;;;57.10;11.10;;;5.00;99.90;;;;;;4954550;28;20483;-68
2022/01/16 08:58:08;;;;;;;55.80;11.63;;;5.00;99.90;;;;;;4952170;28;20534;-68
2022/01/16 09:00:34;;;;;;;65.28;12.65;;;5.00;99.90;;;;;;4951739;29;20097;-67
2022/01/16 09:03:00;;;;;;;42.88;8.70;;;5.10;99.90;;;;;;4939746;28;20680;-67
2022/01/16 09:05:26;;;;;;;67.30;12.43;;;5.10;99.90;;;;;;4952556;28;20122;-67
2022/01/16 09:07:53;;;;;;;73.72;13.05;;;5.10;99.90;;;;;;4953856;28;20079;-67
2022/01/16 09:10:19;;;;;;;75.57;12.63;;;5.20;99.90;;;;;;4951310;28;20031;-67
2022/01/16 09:12:45;;;;;;;86.47;12.27;;;5.20;99.90;;;;;;4946940;29;20090;-67
2022/01/16 09:15:12;;;;;;;79.88;14.25;;;5.20;99.90;;;;;;4953165;28;20049;-67
2022/01/16 09:17:38;;;;;;;93.97;13.20;;;5.30;99.90;;;;;;4952559;28;20618;-67
2022/01/16 09:20:06;;;;;;;79.65;11.98;;;5.40;99.90;;;;;;4953706;28;20023;-68
2022/01/16 09:22:32;;;;;;;82.03;13.23;;;5.40;99.90;;;;;;4952738;29;21031;-68
2022/01/16 09:25:00;;;;;;;101.93;13.40;;;5.40;99.90;;;;;;4952963;28;20042;-68
2022/01/16 09:27:25;;;;;;;49.70;10.63;;;5.50;99.90;;;;;;4952751;29;20054;-67
2022/01/16 09:29:51;;;;;;;71.22;11.20;;;5.70;99.90;;;;;;4952859;29;20530;-68
2022/01/16 09:32:17;;;;;;;75.30;11.38;;;5.70;99.90;;;;;;4953086;29;20106;-67
2022/01/16 09:34:43;;;;;;;43.83;10.15;;;5.80;99.90;;;;;;4953983;28;20057;-68
2022/01/16 09:37:09;;;;;;;46.92;10.98;;;5.90;99.90;;;;;;4967327;28;20031;-68
2022/01/16 09:39:39;;;;;;;42.13;10.15;;;5.90;99.90;;;;;;4952734;28;20073;-68
2022/01/16 09:42:07;;;;;;;55.55;11.35;;;5.90;99.90;;;;;;4945115;28;20509;-68
2022/01/16 09:44:40;;;;;;;46.17;10.45;;;6.00;99.90;;;;;;4937688;29;20027;-67
2022/01/16 09:47:07;;;;;;;49.00;10.45;;;6.00;99.90;;;;;;4949755;29;20032;-68
2022/01/16 09:49:32;;;;;;;77.70;11.98;;;6.10;99.90;;;;;;4952613;29;20085;-68
2022/01/16 09:51:58;;;;;;;46.17;9.77;;;6.10;99.90;;;;;;4952005;29;20467;-68
2022/01/16 09:54:24;;;;;;;42.38;9.95;;;6.10;99.90;;;;;;4952493;29;20027;-67
2022/01/16 09:56:51;;;;;;;52.15;10.00;;;6.10;99.90;;;;;;4952150;29;20037;-68
2022/01/16 09:59:17;;;;;;;46.80;9.02;;;6.00;99.90;;;;;;4952060;28;20114;-68
2022/01/16 10:01:43;;;;;;;35.65;8.45;;;6.00;99.90;;;;;;4941228;29;20127;-68
2022/01/16 10:04:38;;;;;;;39.60;9.30;;;6.00;99.90;;;;;;4945334;28;20044;-68
2022/01/16 10:07:12;;;;;;;34.22;9.57;;;6.00;99.90;;;;;;4952180;29;20483;-67
2022/01/16 10:09:40;;;;;;;37.75;9.35;;;5.90;99.90;;;;;;4951833;29;20031;-67
2022/01/16 10:12:16;;;;;;;42.95;9.68;;;5.90;99.90;;;;;;4945229;28;20419;-67
2022/01/16 10:14:47;;;;;;;203.15;59.13;;;6.00;99.90;;;;;;4937803;29;20395;-67
2022/01/16 10:17:16;;;;;;;30.98;9.82;;;6.00;99.90;;;;;;4951959;28;20441;-68
2022/01/16 10:19:42;;;;;;;38.58;12.52;;;6.00;99.90;;;;;;4952433;29;20034;-68
2022/01/16 10:22:10;;;;;;;22.92;7.28;;;6.00;99.90;;;;;;4950733;28;20031;-68
2022/01/16 10:24:39;;;;;;;28.98;9.38;;;6.00;99.90;;;;;;4951761;29;20023;-68
2022/01/16 10:27:07;;;;;;;32.53;8.85;;;6.00;99.90;;;;;;4951742;29;20023;-68
2022/01/16 10:29:53;;;;;;;23.52;9.38;;;6.10;99.90;;;;;;4948924;29;20066;-68
2022/01/16 10:32:31;;;;;;;24.85;9.65;;;6.10;99.90;;;;;;4943603;28;20046;-68
2022/01/16 10:35:11;;;;;;;22.75;8.98;;;6.20;99.90;;;;;;4951058;28;20087;-69
2022/01/16 10:37:43;;;;;;;24.27;8.88;;;6.30;99.90;;;;;;4951346;28;20114;-67
2022/01/16 10:40:11;;;;;;;29.50;9.48;;;6.30;99.90;;;;;;4950909;28;20447;-67
2022/01/16 10:42:39;;;;;;;27.40;9.30;;;6.20;99.90;;;;;;4951344;29;20410;-67
2022/01/16 10:45:16;;;;;;;24.27;9.20;;;6.20;99.90;;;;;;4950070;28;20038;-67
2022/01/16 10:47:43;;;;;;;26.95;9.82;;;6.20;99.90;;;;;;4948104;29;20027;-67
2022/01/16 10:50:14;;;;;;;25.42;8.90;;;6.30;99.90;;;;;;4950948;28;20031;-68
2022/01/16 10:53:01;;;;;;;22.38;9.23;;;6.20;99.90;;;;;;4950840;29;20038;-68
2022/01/16 10:55:47;;;;;;;23.13;9.05;;;6.30;99.90;;;;;;4950251;29;20447;-68
2022/01/16 10:58:22;;;;;;;27.00;11.00;;;6.40;99.90;;;;;;4948780;29;20031;-68
2022/01/16 11:00:54;;;;;;;22.30;9.85;;;6.50;99.90;;;;;;4950070;28;20046;-68
2022/01/16 11:03:22;;;;;;;22.40;9.18;;;6.50;99.90;;;;;;4947037;29;20521;-68
2022/01/16 11:05:49;;;;;;;22.60;9.32;;;6.60;99.90;;;;;;4948579;28;20023;-68
2022/01/16 11:08:23;;;;;;;23.27;9.40;;;6.60;99.90;;;;;;4946461;29;20110;-68
2022/01/16 11:10:52;;;;;;;25.25;11.48;;;6.70;99.90;;;;;;4949145;29;20023;-69
2022/01/16 11:13:32;;;;;;;24.38;9.50;;;6.70;99.90;;;;;;4947827;28;20562;-68
2022/01/16 11:16:07;;;;;;;18.40;8.77;;;6.80;99.90;;;;;;4949661;28;20043;-69
2022/01/16 11:18:48;;;;;;;22.10;9.80;;;6.80;99.90;;;;;;4952340;29;20122;-67
2022/01/16 11:21:18;;;;;;;21.48;10.18;;;6.90;99.90;;;;;;4953166;29;20027;-69
2022/01/16 11:26:22;;;;;;;22.95;10.80;;;6.90;99.90;;;;;;4954362;28;20082;-66
2022/01/16 11:28:51;;;;;;;28.42;11.02;;;6.90;99.90;;;;;;4953627;29;20046;-69
2022/01/16 11:31:17;;;;;;;26.38;12.88;;;7.00;99.90;;;;;;4951899;29;20058;-69
2022/01/16 11:33:45;;;;;;;25.20;9.63;;;7.10;99.90;;;;;;4953949;28;20479;-68
2022/01/16 11:36:16;;;;;;;23.85;11.68;;;7.20;99.90;;;;;;4950841;29;20116;-68
2022/01/16 11:38:57;;;;;;;25.73;11.73;;;7.30;99.90;;;;;;4952400;28;20031;-68
2022/01/16 11:41:34;;;;;;;22.33;9.05;;;7.30;99.90;;;;;;4950227;29;20032;-69
2022/01/16 11:44:30;;;;;;;21.02;9.23;;;7.30;99.90;;;;;;4954892;29;20039;-69
2022/01/16 11:47:03;;;;;;;22.48;9.70;;;7.30;99.90;;;;;;4955085;29;20027;-69
2022/01/16 11:49:38;;;;;;;24.08;11.75;;;7.30;99.90;;;;;;4949759;28;20114;-69
2022/01/16 11:52:18;;;;;;;28.05;17.33;;;7.20;99.90;;;;;;4953891;28;20027;-71
2022/01/16 11:54:47;;;;;;;16.35;8.52;;;7.20;99.90;;;;;;4951706;28;20042;-69
2022/01/16 11:57:23;;;;;;;22.73;9.98;;;7.20;99.90;;;;;;4950346;28;20031;-69
2022/01/16 12:00:08;;;;;;;20.98;9.88;;;7.20;99.90;;;;;;4952765;29;20047;-69
2022/01/16 12:02:43;;;;;;;21.02;9.02;;;7.10;99.90;;;;;;4952708;28;20027;-69
2022/01/16 12:05:09;;;;;;;21.90;10.27;;;7.10;99.90;;;;;;4951636;29;20075;-69
2022/01/16 12:07:35;;;;;;;21.58;10.00;;;7.10;99.90;;;;;;4953991;28;20030;-69
2022/01/16 12:10:01;;;;;;;21.05;9.70;;;7.20;99.90;;;;;;4949679;29;20043;-70
2022/01/16 12:12:27;;;;;;;22.55;10.32;;;7.20;99.90;;;;;;4954710;28;20023;-70
2022/01/16 12:14:59;;;;;;;25.05;10.65;;;7.20;99.90;;;;;;4948549;29;20101;-69
2022/01/16 12:20:25;;;;;;;27.52;12.27;;;7.40;99.90;;;;;;4952024;28;20098;-70
2022/01/16 12:23:04;;;;;;;29.02;12.45;;;7.40;99.90;;;;;;4955551;28;20035;-69
2022/01/16 12:26:02;;;;;;;32.67;14.80;;;7.40;99.90;;;;;;4953551;28;20041;-69
2022/01/16 12:28:28;;;;;;;37.50;16.25;;;7.40;99.90;;;;;;4947572;28;20607;-70
2022/01/16 12:30:59;;;;;;;27.17;12.00;;;7.40;99.90;;;;;;4947459;28;20035;-70
2022/01/16 12:33:29;;;;;;;;;;;7.50;99.90;;;;;;4945153;29;20114;-69
2022/01/16 12:35:55;;;;;;;30.40;11.88;;;7.50;99.90;;;;;;4947049;28;19997;-69
2022/01/16 12:38:30;;;;;;;27.02;11.63;;;7.60;99.90;;;;;;4953099;28;20106;-70
2022/01/16 12:41:19;;;;;;;26.98;11.85;;;7.70;99.90;;;;;;4954624;29;20031;-70
2022/01/16 12:43:55;;;;;;;37.10;17.30;;;7.90;99.90;;;;;;4954508;29;20035;-70
2022/01/16 12:46:33;;;;;;;28.05;12.65;;;8.00;99.90;;;;;;4951297;28;20390;-70
2022/01/16 12:49:03;;;;;;;30.10;13.82;;;8.10;99.90;;;;;;4949247;28;20071;-70
2022/01/16 12:51:31;;;;;;;32.72;13.10;;;8.30;99.90;;;;;;4945563;29;20035;-70
2022/01/16 12:54:07;;;;;;;34.88;19.67;;;8.40;99.90;;;;;;4951371;28;20035;-70
2022/01/16 12:56:38;;;;;;;24.98;11.52;;;8.50;99.90;;;;;;4936169;29;20086;-70
2022/01/16 12:59:09;;;;;;;27.30;12.60;;;8.50;99.90;;;;;;4950631;29;20031;-69
2022/01/16 13:01:36;;;;;;;27.10;12.40;;;8.60;99.90;;;;;;4951012;29;20027;-70
2022/01/16 13:04:02;;;;;;;25.90;12.95;;;8.70;99.90;;;;;;4950335;28;20078;-70
2022/01/16 13:06:32;;;;;;;27.77;12.52;;;8.70;99.90;;;;;;4950979;28;20027;-70
2022/01/16 13:09:05;;;;;;;27.88;12.27;;;8.80;99.90;;;;;;4951091;28;20509;-70
2022/01/16 13:11:31;;;;;;;23.73;11.95;;;8.80;99.90;;;;;;4953210;28;20545;-70
2022/01/16 13:13:58;;;;;;;24.65;12.15;;;8.80;99.90;;;;;;4953442;28;20202;-71
2022/01/16 13:16:29;;;;;;;25.77;12.50;;;8.80;99.90;;;;;;4948567;29;20489;-71
2022/01/16 13:19:07;;;;;;;26.27;12.40;;;8.70;99.90;;;;;;4950275;28;20099;-70
2022/01/16 13:22:13;;;;;;;28.10;13.07;;;8.60;99.90;;;;;;4944970;29;20077;-70
2022/01/16 13:24:49;;;;;;;30.67;13.05;;;8.50;99.90;;;;;;4941408;29;20051;-69
2022/01/16 13:27:21;;;;;;;29.77;13.25;;;8.40;99.90;;;;;;4950527;28;21670;-69
2022/01/16 13:29:57;;;;;;;29.80;13.30;;;8.30;99.90;;;;;;4949467;28;20031;-69
2022/01/16 13:32:28;;;;;;;29.85;13.80;;;8.20;99.90;;;;;;4951878;28;20046;-69
2022/01/16 13:34:56;;;;;;;29.65;13.70;;;8.20;99.90;;;;;;4953296;28;20023;-69